Time;durP1;ratioP1;P1;durP2;ratioP2;P2;SDS_P1;SDS_P2;PMS_P1;PMS_P2;Temp;Humidity;BMP_temperature;BMP_pressure;BME280_temperature;BME280_humidity;BME280_pressure;Samples;Min_cycle;Max_cycle;Signal;HPM_P1;HPM_P2
2021/01/31 00:00:23;;;;;;;47.40;21.13;;;0.90;99.90;;;;;;5045994;27;20336;-75
2021/01/31 00:02:50;;;;;;;45.90;21.33;;;0.90;99.90;;;;;;5091566;27;20211;-74
2021/01/31 00:05:17;;;;;;;42.47;19.33;;;0.90;99.90;;;;;;5100979;27;20196;-76
2021/01/31 00:07:44;;;;;;;43.53;19.73;;;0.90;99.90;;;;;;5116973;27;20197;-76
2021/01/31 00:10:13;;;;;;;41.83;19.93;;;0.90;99.90;;;;;;5113347;27;20211;-74
2021/01/31 00:12:40;;;;;;;44.53;19.33;;;0.90;99.90;;;;;;5092929;27;20314;-75
2021/01/31 00:15:12;;;;;;;42.43;20.10;;;0.90;99.90;;;;;;5045158;27;20212;-76
2021/01/31 00:17:39;;;;;;;52.27;22.47;;;0.90;99.90;;;;;;5092149;27;20224;-75
2021/01/31 00:20:07;;;;;;;44.03;19.73;;;0.90;99.90;;;;;;5103864;27;20208;-74
2021/01/31 00:22:33;;;;;;;41.87;20.13;;;0.80;99.90;;;;;;5094454;27;20610;-74
2021/01/31 00:25:00;;;;;;;43.80;19.90;;;0.80;99.90;;;;;;5041396;27;20227;-75
2021/01/31 00:27:27;;;;;;;42.50;18.53;;;0.90;99.90;;;;;;5083372;27;20228;-75
2021/01/31 00:29:53;;;;;;;43.53;17.80;;;0.90;99.90;;;;;;5075750;27;20196;-74
2021/01/31 00:32:24;;;;;;;42.80;19.40;;;0.90;99.90;;;;;;5083892;27;20193;-74
2021/01/31 00:34:52;;;;;;;41.30;19.13;;;0.90;99.90;;;;;;5089962;27;20204;-74
2021/01/31 00:37:19;;;;;;;42.97;19.90;;;0.90;99.90;;;;;;5106157;27;20224;-74
2021/01/31 00:39:46;;;;;;;43.63;18.07;;;0.90;99.90;;;;;;5094239;27;20200;-74
2021/01/31 00:42:16;;;;;;;42.07;19.70;;;0.90;99.90;;;;;;5049718;27;20883;-74
2021/01/31 00:44:45;;;;;;;37.00;17.23;;;0.90;99.90;;;;;;5088563;27;20196;-73
2021/01/31 00:47:12;;;;;;;37.67;16.63;;;0.90;99.90;;;;;;5076505;27;20204;-74
2021/01/31 00:49:39;;;;;;;41.27;18.67;;;0.80;99.90;;;;;;5084520;27;20772;-74
2021/01/31 00:52:05;;;;;;;41.47;19.17;;;0.90;99.90;;;;;;5049481;27;20204;-74
2021/01/31 00:54:33;;;;;;;39.53;17.93;;;0.90;99.90;;;;;;5039226;27;20348;-74
2021/01/31 00:57:00;;;;;;;43.03;18.00;;;0.90;99.90;;;;;;5040788;27;20305;-74
2021/01/31 00:59:26;;;;;;;36.60;16.57;;;0.80;99.90;;;;;;5139349;27;20204;-74
2021/01/31 01:01:54;;;;;;;35.73;16.67;;;0.80;99.90;;;;;;5045645;27;20245;-74
2021/01/31 01:04:21;;;;;;;40.80;18.17;;;0.80;99.90;;;;;;5031507;27;20703;-74
2021/01/31 01:07:00;;;;;;;37.53;16.73;;;0.80;99.90;;;;;;5034077;27;20682;-74
2021/01/31 01:09:27;;;;;;;37.60;17.57;;;0.80;99.90;;;;;;5050856;27;20628;-74
2021/01/31 01:11:53;;;;;;;37.67;17.00;;;0.80;99.90;;;;;;5038055;28;20200;-74
2021/01/31 01:14:20;;;;;;;39.57;17.63;;;0.70;99.90;;;;;;5061610;27;20249;-74
2021/01/31 01:16:46;;;;;;;35.30;17.10;;;0.80;99.90;;;;;;5106020;27;20649;-74
2021/01/31 01:19:13;;;;;;;41.47;17.03;;;0.70;99.90;;;;;;5037163;27;20208;-74
2021/01/31 01:21:41;;;;;;;39.00;17.43;;;0.70;99.90;;;;;;5085747;27;20203;-74
2021/01/31 01:24:07;;;;;;;41.60;18.47;;;0.70;99.90;;;;;;5077382;27;20904;-74
2021/01/31 01:26:34;;;;;;;37.10;16.60;;;0.70;99.90;;;;;;5084144;27;20235;-75
2021/01/31 01:29:01;;;;;;;37.67;17.20;;;0.70;99.90;;;;;;5098620;27;20197;-74
2021/01/31 01:31:27;;;;;;;35.67;17.80;;;0.70;99.90;;;;;;5086176;27;20193;-73
2021/01/31 01:33:54;;;;;;;38.37;18.77;;;0.70;99.90;;;;;;5036307;27;20213;-74
2021/01/31 01:36:21;;;;;;;36.77;15.93;;;0.70;99.90;;;;;;5049263;27;20203;-74
2021/01/31 01:38:47;;;;;;;36.80;18.27;;;0.70;99.90;;;;;;5084574;27;20227;-74
2021/01/31 01:41:14;;;;;;;38.37;19.13;;;0.70;99.90;;;;;;5054788;27;20195;-74
2021/01/31 01:43:41;;;;;;;40.27;17.70;;;0.70;99.90;;;;;;5069013;28;20718;-74
2021/01/31 01:46:34;;;;;;;40.60;19.13;;;0.70;99.90;;;;;;5073417;28;20214;-74
2021/01/31 01:49:05;;;;;;;40.83;19.33;;;0.70;99.90;;;;;;5063731;28;20219;-74
2021/01/31 01:51:39;;;;;;;39.90;17.27;;;0.70;99.90;;;;;;5035051;28;20712;-74
2021/01/31 01:54:09;;;;;;;38.07;18.50;;;0.60;99.90;;;;;;5099836;28;20203;-73
2021/01/31 01:56:41;;;;;;;39.70;18.07;;;0.60;99.90;;;;;;5102432;28;20204;-73
2021/01/31 01:59:09;;;;;;;40.70;17.20;;;0.60;99.90;;;;;;5112979;27;20223;-73
2021/01/31 02:01:38;;;;;;;40.10;18.37;;;0.60;99.90;;;;;;5037847;28;20552;-75
2021/01/31 02:04:05;;;;;;;38.27;16.37;;;0.60;99.90;;;;;;5094890;28;20220;-74
2021/01/31 02:06:31;;;;;;;39.20;17.07;;;0.60;99.90;;;;;;5094849;28;20273;-74
2021/01/31 02:08:59;;;;;;;38.03;17.97;;;0.60;99.90;;;;;;5083604;28;20196;-74
2021/01/31 02:11:27;;;;;;;40.30;18.37;;;0.60;99.90;;;;;;5108302;28;20231;-75
2021/01/31 02:13:58;;;;;;;43.80;19.23;;;0.50;99.90;;;;;;5086131;28;20281;-74
2021/01/31 02:16:35;;;;;;;36.83;16.53;;;0.50;99.90;;;;;;5059000;28;20201;-74
2021/01/31 02:19:21;;;;;;;41.57;18.20;;;0.60;99.90;;;;;;5032076;28;20227;-74
2021/01/31 02:22:12;;;;;;;40.53;18.57;;;0.60;99.90;;;;;;5091169;28;20204;-74
2021/01/31 02:25:24;;;;;;;37.13;15.47;;;0.60;99.90;;;;;;5088415;28;20192;-74
2021/01/31 02:28:24;;;;;;;37.57;17.47;;;0.50;99.90;;;;;;5098800;28;20601;-74
2021/01/31 02:31:36;;;;;;;38.03;17.93;;;0.50;99.90;;;;;;5062535;28;20205;-74
2021/01/31 02:34:08;;;;;;;37.37;15.90;;;0.50;99.90;;;;;;5092342;27;20554;-74
2021/01/31 02:36:43;;;;;;;39.77;17.43;;;0.50;99.90;;;;;;5116391;27;20586;-74
2021/01/31 02:39:20;;;;;;;41.73;19.17;;;0.50;99.90;;;;;;5090818;27;20224;-74
2021/01/31 02:41:59;;;;;;;42.03;19.13;;;0.50;99.90;;;;;;5092644;27;20216;-74
2021/01/31 02:44:29;;;;;;;39.27;17.10;;;0.40;99.90;;;;;;5090865;27;20196;-74
2021/01/31 02:46:58;;;;;;;37.27;17.23;;;0.40;99.90;;;;;;5088941;27;20196;-74
2021/01/31 02:49:30;;;;;;;38.30;17.30;;;0.40;99.90;;;;;;5104231;27;20205;-74
2021/01/31 02:52:04;;;;;;;39.17;17.47;;;0.40;99.90;;;;;;5107477;27;20219;-74
2021/01/31 02:54:37;;;;;;;37.90;19.00;;;0.40;99.90;;;;;;5037975;27;20200;-74
2021/01/31 02:57:09;;;;;;;39.27;17.53;;;0.40;99.90;;;;;;5113847;27;20204;-74
2021/01/31 02:59:40;;;;;;;37.53;16.63;;;0.40;99.90;;;;;;5036075;27;20220;-73
2021/01/31 03:02:13;;;;;;;39.93;18.80;;;0.40;99.90;;;;;;5112668;27;21026;-74
2021/01/31 03:04:45;;;;;;;38.47;18.63;;;0.40;99.90;;;;;;5066245;27;20199;-74
2021/01/31 03:07:17;;;;;;;40.17;17.93;;;0.40;99.90;;;;;;5099997;27;20204;-74
2021/01/31 03:09:49;;;;;;;37.60;17.80;;;0.40;99.90;;;;;;5082587;27;20196;-74
2021/01/31 03:12:20;;;;;;;36.17;16.23;;;0.40;99.90;;;;;;5037281;27;20857;-74
2021/01/31 03:14:52;;;;;;;40.27;18.23;;;0.30;99.90;;;;;;5035359;27;20296;-73
2021/01/31 03:17:24;;;;;;;38.77;18.40;;;0.30;99.90;;;;;;5068902;27;20254;-75
2021/01/31 03:19:58;;;;;;;42.83;19.67;;;0.30;99.90;;;;;;5073064;27;20214;-74
2021/01/31 03:22:32;;;;;;;40.77;18.60;;;0.30;99.90;;;;;;5029030;27;20720;-75
2021/01/31 03:25:02;;;;;;;39.33;17.43;;;0.30;99.90;;;;;;5115307;27;20249;-74
2021/01/31 03:27:33;;;;;;;42.93;19.70;;;0.30;99.90;;;;;;5072360;27;20303;-74
2021/01/31 03:29:59;;;;;;;43.77;18.20;;;0.20;99.90;;;;;;5108211;27;20207;-74
2021/01/31 03:32:28;;;;;;;42.67;19.03;;;0.20;99.90;;;;;;5038238;27;20200;-74
2021/01/31 03:34:59;;;;;;;37.87;17.07;;;0.20;99.90;;;;;;5056432;27;20212;-74
2021/01/31 03:37:32;;;;;;;40.53;18.20;;;0.20;99.90;;;;;;5114779;27;20230;-74
2021/01/31 03:40:01;;;;;;;37.20;17.07;;;0.20;99.90;;;;;;5116136;27;20196;-73
2021/01/31 03:42:27;;;;;;;41.17;19.80;;;0.20;99.90;;;;;;5117296;27;20215;-74
2021/01/31 03:44:57;;;;;;;38.10;17.03;;;0.20;99.90;;;;;;5077010;27;20184;-74
2021/01/31 03:47:29;;;;;;;40.23;18.30;;;0.20;99.90;;;;;;5114448;27;20557;-74
2021/01/31 03:49:59;;;;;;;37.47;17.33;;;0.20;99.90;;;;;;5113848;27;20192;-74
2021/01/31 03:52:27;;;;;;;36.17;16.47;;;0.20;99.90;;;;;;5093950;27;21136;-74
2021/01/31 03:54:53;;;;;;;38.60;18.10;;;0.20;99.90;;;;;;5092716;27;20219;-74
2021/01/31 03:57:28;;;;;;;36.53;18.07;;;0.20;99.90;;;;;;5104695;27;20230;-73
2021/01/31 04:00:00;;;;;;;39.43;19.13;;;0.20;99.90;;;;;;5096460;27;20203;-74
2021/01/31 04:02:33;;;;;;;39.47;18.50;;;0.20;99.90;;;;;;5109459;27;20252;-74
2021/01/31 04:05:03;;;;;;;38.20;18.17;;;0.20;99.90;;;;;;5091447;27;20212;-73
2021/01/31 04:07:36;;;;;;;37.40;17.23;;;0.20;99.90;;;;;;5067637;27;20203;-74
2021/01/31 04:10:08;;;;;;;38.90;17.50;;;0.20;99.90;;;;;;5090370;27;20312;-74
2021/01/31 04:12:37;;;;;;;39.37;18.90;;;0.20;99.90;;;;;;5101632;27;20660;-76
2021/01/31 04:15:12;;;;;;;40.63;18.70;;;0.20;99.90;;;;;;5094590;27;20679;-74
2021/01/31 04:17:42;;;;;;;40.30;18.33;;;0.20;99.90;;;;;;5111817;27;20252;-73
2021/01/31 04:20:11;;;;;;;39.93;18.13;;;0.20;99.90;;;;;;5081447;27;20679;-74
2021/01/31 04:22:37;;;;;;;39.57;18.70;;;0.20;99.90;;;;;;5048317;27;20223;-74
2021/01/31 04:25:04;;;;;;;37.57;18.20;;;0.20;99.90;;;;;;5063402;27;20199;-73
2021/01/31 04:27:31;;;;;;;42.80;19.60;;;0.20;99.90;;;;;;5100243;27;20224;-73
2021/01/31 04:29:57;;;;;;;42.43;18.53;;;0.20;99.90;;;;;;5078409;27;20211;-74
2021/01/31 04:32:24;;;;;;;39.30;18.93;;;0.20;99.90;;;;;;5078667;27;20215;-74
2021/01/31 04:34:50;;;;;;;44.07;19.10;;;0.10;99.90;;;;;;5085899;27;20261;-75
2021/01/31 04:37:20;;;;;;;44.27;19.57;;;0.10;99.90;;;;;;5030832;27;20227;-74
2021/01/31 04:39:46;;;;;;;43.23;19.43;;;0.10;99.90;;;;;;5043907;27;20207;-74
2021/01/31 04:42:16;;;;;;;45.53;19.33;;;0.10;99.90;;;;;;5102192;27;20208;-74
2021/01/31 04:44:43;;;;;;;43.40;19.10;;;0.00;99.90;;;;;;5092668;27;20204;-74
2021/01/31 04:47:17;;;;;;;41.00;18.43;;;0.00;99.90;;;;;;5033085;27;20208;-73
2021/01/31 04:49:58;;;;;;;45.43;19.53;;;0.00;99.90;;;;;;5082388;27;20208;-74
2021/01/31 04:52:39;;;;;;;39.20;18.30;;;0.00;99.90;;;;;;5026498;27;20204;-73
2021/01/31 04:55:23;;;;;;;42.40;18.93;;;0.00;99.90;;;;;;5100341;27;20216;-73
2021/01/31 04:57:59;;;;;;;44.77;19.60;;;0.00;99.90;;;;;;5032867;27;20347;-74
2021/01/31 05:00:28;;;;;;;43.17;19.83;;;0.10;99.90;;;;;;5039000;27;20212;-74
2021/01/31 05:02:59;;;;;;;42.27;18.97;;;0.00;99.90;;;;;;5039648;27;20691;-74
2021/01/31 05:05:27;;;;;;;46.47;20.37;;;0.00;99.90;;;;;;5095213;27;20212;-74
2021/01/31 05:07:58;;;;;;;46.03;20.27;;;0.00;99.90;;;;;;5112537;27;20668;-74
2021/01/31 05:10:26;;;;;;;45.03;19.13;;;0.00;99.90;;;;;;5093727;27;20604;-74
2021/01/31 05:13:22;;;;;;;44.60;20.20;;;0.00;99.90;;;;;;5110077;27;20292;-74
2021/01/31 05:16:00;;;;;;;46.30;18.60;;;0.00;99.90;;;;;;5078201;27;20244;-74
2021/01/31 05:18:28;;;;;;;44.23;20.13;;;0.00;99.90;;;;;;5067083;27;20219;-74
2021/01/31 05:21:01;;;;;;;42.60;20.27;;;0.00;99.90;;;;;;5095248;27;20232;-74
2021/01/31 05:23:35;;;;;;;42.87;18.53;;;0.00;99.90;;;;;;5088564;27;20208;-75
2021/01/31 05:26:02;;;;;;;40.53;18.77;;;0.00;99.90;;;;;;5057476;27;20341;-75
2021/01/31 05:28:32;;;;;;;44.00;18.40;;;0.00;99.90;;;;;;5089625;27;20265;-74
2021/01/31 05:30:59;;;;;;;46.97;19.93;;;0.00;99.90;;;;;;5052923;27;20551;-74
2021/01/31 05:33:25;;;;;;;42.43;18.27;;;0.00;99.90;;;;;;5040911;27;20211;-74
2021/01/31 05:36:12;;;;;;;45.27;17.53;;;0.00;99.90;;;;;;5083464;27;20568;-74
2021/01/31 05:38:41;;;;;;;42.70;18.80;;;0.00;99.90;;;;;;5064246;27;20287;-75
2021/01/31 05:41:28;;;;;;;43.13;19.33;;;-0.10;99.90;;;;;;5059928;27;20212;-74
2021/01/31 05:43:57;;;;;;;43.93;19.60;;;-0.10;99.90;;;;;;5069591;27;20227;-75
2021/01/31 05:46:31;;;;;;;41.03;17.37;;;-0.10;99.90;;;;;;5080967;28;20710;-75
2021/01/31 05:48:58;;;;;;;42.87;18.43;;;-0.10;99.90;;;;;;5023461;28;20622;-74
2021/01/31 05:51:32;;;;;;;38.73;17.23;;;-0.10;99.90;;;;;;5048300;28;20203;-74
2021/01/31 05:54:17;;;;;;;39.60;16.87;;;-0.20;99.90;;;;;;5045003;28;20199;-74
2021/01/31 05:56:45;;;;;;;38.73;17.87;;;-0.20;99.90;;;;;;5053897;28;20211;-74
2021/01/31 05:59:13;;;;;;;43.90;19.17;;;-0.20;99.90;;;;;;5089587;28;20563;-74
2021/01/31 06:01:53;;;;;;;46.57;19.10;;;-0.20;99.90;;;;;;5037345;28;20586;-73
2021/01/31 06:04:22;;;;;;;40.17;17.73;;;-0.20;99.90;;;;;;5083601;28;20200;-74
2021/01/31 06:06:50;;;;;;;40.10;17.07;;;-0.20;99.90;;;;;;5033402;27;20195;-73
2021/01/31 06:09:30;;;;;;;40.77;18.93;;;-0.20;99.90;;;;;;5047392;27;20203;-73
2021/01/31 06:12:05;;;;;;;39.70;17.30;;;-0.20;99.90;;;;;;5085073;27;20257;-74
2021/01/31 06:14:33;;;;;;;40.20;17.67;;;-0.20;99.90;;;;;;5104757;27;20203;-74
2021/01/31 06:17:04;;;;;;;40.30;18.67;;;-0.20;99.90;;;;;;5098839;27;20223;-73
2021/01/31 06:19:33;;;;;;;43.40;18.67;;;-0.20;99.90;;;;;;5095622;27;20232;-75
2021/01/31 06:22:00;;;;;;;41.87;18.33;;;-0.20;99.90;;;;;;5078047;27;20212;-74
2021/01/31 06:24:40;;;;;;;38.40;16.87;;;-0.20;99.90;;;;;;5114030;27;20229;-75
2021/01/31 06:27:06;;;;;;;41.70;17.97;;;-0.20;99.90;;;;;;5075460;27;20239;-74
2021/01/31 06:29:39;;;;;;;38.47;17.63;;;-0.20;99.90;;;;;;5095461;27;20197;-74
2021/01/31 06:32:09;;;;;;;37.23;17.27;;;-0.20;99.90;;;;;;5028743;27;20211;-74
2021/01/31 06:34:36;;;;;;;41.33;17.97;;;-0.20;99.90;;;;;;5082366;27;20202;-75
2021/01/31 06:37:21;;;;;;;38.10;17.03;;;-0.20;99.90;;;;;;5110328;27;20556;-75
2021/01/31 06:40:06;;;;;;;40.33;16.90;;;-0.20;99.90;;;;;;5087937;27;20231;-76
2021/01/31 06:42:44;;;;;;;42.87;17.90;;;-0.20;99.90;;;;;;5043156;27;20694;-75
2021/01/31 06:45:21;;;;;;;40.13;17.47;;;-0.20;99.90;;;;;;5070168;27;20638;-76
2021/01/31 06:48:32;;;;;;;41.60;18.67;;;-0.20;99.90;;;;;;5105108;27;20214;-73
2021/01/31 06:51:11;;;;;;;37.03;15.70;;;-0.20;99.90;;;;;;5031072;28;20259;-75
2021/01/31 06:54:01;;;;;;;39.50;15.07;;;-0.20;99.90;;;;;;5084887;27;20286;-75
2021/01/31 06:56:51;;;;;;;37.30;15.90;;;-0.20;99.90;;;;;;5034673;27;20211;-75
2021/01/31 06:59:39;;;;;;;37.40;16.03;;;-0.20;99.90;;;;;;5046986;27;20212;-73
2021/01/31 07:02:44;;;;;;;43.23;18.07;;;-0.20;99.90;;;;;;5120307;27;20622;-73
2021/01/31 07:05:35;;;;;;;37.90;15.70;;;-0.10;99.90;;;;;;5102477;27;20195;-75
2021/01/31 07:08:38;;;;;;;45.63;18.67;;;-0.10;99.90;;;;;;5083366;27;20192;-75
2021/01/31 07:11:26;;;;;;;41.77;17.87;;;-0.10;99.90;;;;;;5048166;27;20207;-74
2021/01/31 07:14:20;;;;;;;35.90;15.63;;;-0.10;99.90;;;;;;5114141;27;20215;-73
2021/01/31 07:16:52;;;;;;;45.60;19.53;;;-0.10;99.90;;;;;;5042028;27;20558;-75
2021/01/31 07:19:23;;;;;;;46.47;18.30;;;-0.10;99.90;;;;;;5116077;27;20269;-73
2021/01/31 07:22:01;;;;;;;41.70;18.93;;;-0.10;99.90;;;;;;5089473;27;20189;-74
2021/01/31 07:24:36;;;;;;;44.07;18.87;;;-0.10;99.90;;;;;;5047169;27;20693;-78
2021/01/31 07:27:08;;;;;;;41.67;17.73;;;0.00;99.90;;;;;;5116054;27;20231;-74
2021/01/31 07:29:43;;;;;;;44.97;19.50;;;-0.10;99.90;;;;;;5052124;27;20293;-75
2021/01/31 07:32:17;;;;;;;49.60;20.80;;;0.00;99.90;;;;;;5101633;27;20947;-74
2021/01/31 07:34:52;;;;;;;45.70;20.30;;;0.00;99.90;;;;;;5096344;27;20199;-75
2021/01/31 07:37:20;;;;;;;38.60;18.17;;;0.00;99.90;;;;;;5048465;27;20203;-74
2021/01/31 07:39:54;;;;;;;48.30;19.90;;;0.00;99.90;;;;;;5041435;28;20214;-74
2021/01/31 07:42:22;;;;;;;42.33;18.43;;;0.00;99.90;;;;;;5117912;27;20207;-73
2021/01/31 07:44:55;;;;;;;40.90;17.20;;;0.00;99.90;;;;;;5076936;27;20260;-73
2021/01/31 07:47:23;;;;;;;39.97;18.73;;;0.00;99.90;;;;;;5127673;27;20565;-75
2021/01/31 07:50:14;;;;;;;38.10;16.90;;;0.00;99.90;;;;;;5067556;27;20203;-75
2021/01/31 07:52:52;;;;;;;40.60;16.77;;;0.00;99.90;;;;;;5096539;27;20958;-74
2021/01/31 07:55:29;;;;;;;41.47;17.23;;;-0.10;99.90;;;;;;5129385;27;20196;-74
2021/01/31 07:58:24;;;;;;;39.67;16.70;;;0.00;99.90;;;;;;5106943;27;20218;-74
2021/01/31 08:00:53;;;;;;;37.30;15.63;;;0.00;99.90;;;;;;5046912;27;20203;-74
2021/01/31 08:03:30;;;;;;;40.87;18.33;;;0.00;99.90;;;;;;5146377;27;20204;-74
2021/01/31 08:06:00;;;;;;;35.57;17.47;;;0.00;99.90;;;;;;5123078;27;20202;-73
2021/01/31 08:08:44;;;;;;;40.73;18.10;;;0.00;99.90;;;;;;5041877;27;20580;-73
2021/01/31 08:11:33;;;;;;;38.33;17.87;;;0.00;99.90;;;;;;5046990;27;20571;-73
2021/01/31 08:13:59;;;;;;;42.13;17.87;;;0.10;99.90;;;;;;5090736;27;20203;-74
2021/01/31 08:16:56;;;;;;;39.67;18.03;;;0.10;99.90;;;;;;5068410;27;20751;-73
2021/01/31 08:19:32;;;;;;;40.10;16.97;;;0.10;99.90;;;;;;5052751;27;20327;-74
2021/01/31 08:22:01;;;;;;;42.17;18.03;;;0.10;99.90;;;;;;5121902;27;20248;-73
2021/01/31 08:25:04;;;;;;;47.97;21.33;;;0.20;99.90;;;;;;5050740;27;20253;-74
2021/01/31 08:27:49;;;;;;;45.50;19.70;;;0.20;99.90;;;;;;5044430;27;20273;-74
2021/01/31 08:30:22;;;;;;;41.83;19.17;;;0.20;99.90;;;;;;5028321;27;20204;-74
2021/01/31 08:33:22;;;;;;;40.47;17.17;;;0.10;99.90;;;;;;5102292;27;20272;-74
2021/01/31 08:36:00;;;;;;;39.33;17.23;;;0.20;99.90;;;;;;5097739;27;20224;-74
2021/01/31 08:38:45;;;;;;;40.60;18.53;;;0.20;99.90;;;;;;5124528;27;20212;-73
2021/01/31 08:41:40;;;;;;;41.07;18.23;;;0.20;99.90;;;;;;5048092;28;20698;-74
2021/01/31 08:44:40;;;;;;;35.93;15.77;;;0.30;99.90;;;;;;5094100;27;20231;-77
2021/01/31 08:47:07;;;;;;;37.67;17.20;;;0.30;99.90;;;;;;5127108;27;20204;-73
2021/01/31 08:49:35;;;;;;;40.77;17.83;;;0.30;99.90;;;;;;5131178;27;20196;-73
2021/01/31 08:52:05;;;;;;;36.57;17.70;;;0.30;99.90;;;;;;5054733;27;20207;-76
2021/01/31 08:54:32;;;;;;;39.67;17.90;;;0.40;99.90;;;;;;5125558;27;20222;-73
2021/01/31 08:57:00;;;;;;;39.07;18.17;;;0.40;99.90;;;;;;5131150;27;20704;-72
2021/01/31 08:59:30;;;;;;;37.70;17.97;;;0.40;99.90;;;;;;5106539;27;20212;-73
2021/01/31 09:02:18;;;;;;;38.30;18.43;;;0.50;99.90;;;;;;5103667;27;20275;-74
2021/01/31 09:04:50;;;;;;;35.83;16.23;;;0.50;99.90;;;;;;5077703;27;20283;-73
2021/01/31 09:07:22;;;;;;;37.27;17.23;;;0.60;99.90;;;;;;5095661;27;20220;-71
2021/01/31 09:09:54;;;;;;;38.50;17.63;;;0.60;99.90;;;;;;5107696;27;20713;-73
2021/01/31 09:12:24;;;;;;;41.00;18.43;;;0.70;99.90;;;;;;5130819;27;20197;-74
2021/01/31 09:14:52;;;;;;;36.33;17.50;;;0.70;99.90;;;;;;5113502;27;20196;-74
2021/01/31 09:17:25;;;;;;;37.67;18.00;;;0.80;99.90;;;;;;5044577;27;20207;-72
2021/01/31 09:20:09;;;;;;;34.53;16.07;;;0.80;99.90;;;;;;5092909;27;20263;-73
2021/01/31 09:22:38;;;;;;;36.27;16.73;;;0.90;99.90;;;;;;5075327;27;20591;-72
2021/01/31 09:25:06;;;;;;;34.97;15.53;;;0.90;99.90;;;;;;5124382;27;20208;-73
2021/01/31 09:27:34;;;;;;;33.63;17.13;;;0.90;99.90;;;;;;5118145;27;20719;-74
2021/01/31 09:30:06;;;;;;;30.67;16.37;;;1.00;99.90;;;;;;5118979;27;20189;-74
2021/01/31 09:32:38;;;;;;;32.20;16.03;;;1.00;99.90;;;;;;5113181;27;20196;-73
2021/01/31 09:35:09;;;;;;;32.83;16.13;;;1.00;99.90;;;;;;5041920;27;20216;-73
2021/01/31 09:37:36;;;;;;;30.70;15.13;;;1.10;99.90;;;;;;5130512;27;20192;-74
2021/01/31 09:40:06;;;;;;;33.30;16.03;;;1.10;99.90;;;;;;5111044;27;20215;-73
2021/01/31 09:42:34;;;;;;;29.97;15.17;;;1.20;99.90;;;;;;5059656;28;20207;-73
2021/01/31 09:45:05;;;;;;;31.17;15.77;;;1.20;99.90;;;;;;5113781;27;20211;-73
2021/01/31 09:47:32;;;;;;;31.53;15.57;;;1.30;99.90;;;;;;5048928;27;21013;-73
2021/01/31 09:50:04;;;;;;;28.20;15.77;;;1.30;99.90;;;;;;5118164;28;20240;-73
2021/01/31 09:52:32;;;;;;;32.83;15.13;;;1.30;99.90;;;;;;5119875;28;20193;-74
2021/01/31 09:55:29;;;;;;;29.93;15.13;;;1.40;99.90;;;;;;5077529;28;20188;-72
2021/01/31 09:57:57;;;;;;;26.67;14.50;;;1.40;99.90;;;;;;5041425;28;20222;-74
2021/01/31 10:00:29;;;;;;;28.80;14.53;;;1.40;99.90;;;;;;5037851;28;20215;-73
2021/01/31 10:03:05;;;;;;;27.83;14.00;;;1.40;99.90;;;;;;5072071;28;20227;-73
2021/01/31 10:05:33;;;;;;;25.27;12.97;;;1.40;99.90;;;;;;5082928;27;20202;-72
2021/01/31 10:08:07;;;;;;;27.13;13.90;;;1.50;99.90;;;;;;5106746;28;20200;-73
2021/01/31 10:10:36;;;;;;;26.07;13.93;;;1.50;99.90;;;;;;5097593;28;20192;-72
2021/01/31 10:13:25;;;;;;;28.63;14.87;;;1.50;99.90;;;;;;5092168;28;20632;-74
2021/01/31 10:15:56;;;;;;;26.10;13.17;;;1.60;99.90;;;;;;5037052;28;20199;-72
2021/01/31 10:18:32;;;;;;;26.67;13.63;;;1.60;99.90;;;;;;5074553;28;20219;-73
2021/01/31 10:21:24;;;;;;;24.43;13.87;;;1.60;99.90;;;;;;5102164;28;20196;-72
2021/01/31 10:24:01;;;;;;;23.90;12.93;;;1.70;99.90;;;;;;5077755;28;20252;-73
2021/01/31 10:26:28;;;;;;;23.87;12.93;;;1.70;99.90;;;;;;5092011;28;20236;-72
2021/01/31 10:28:58;;;;;;;26.30;13.63;;;1.60;99.90;;;;;;5103157;28;20205;-71
2021/01/31 10:31:30;;;;;;;27.00;13.77;;;1.70;99.90;;;;;;5052517;27;20687;-73
2021/01/31 10:33:59;;;;;;;29.30;14.57;;;1.70;99.90;;;;;;5097696;27;20241;-75
2021/01/31 10:36:31;;;;;;;26.33;13.70;;;1.70;99.90;;;;;;5108488;28;20264;-73
2021/01/31 10:38:59;;;;;;;23.17;12.63;;;1.80;99.90;;;;;;5078059;27;20212;-72
2021/01/31 10:41:26;;;;;;;24.00;12.63;;;1.90;99.90;;;;;;5094469;28;20208;-73
2021/01/31 10:44:02;;;;;;;25.40;13.77;;;2.00;99.90;;;;;;5075042;28;20717;-73
2021/01/31 10:46:31;;;;;;;30.10;14.23;;;2.00;99.90;;;;;;5041338;28;20237;-73
2021/01/31 10:48:57;;;;;;;24.67;13.27;;;2.10;99.90;;;;;;5107147;28;20208;-73
2021/01/31 10:51:25;;;;;;;24.27;12.57;;;2.20;99.90;;;;;;5028962;28;20227;-75
2021/01/31 10:53:51;;;;;;;25.33;12.80;;;2.20;99.90;;;;;;5079714;27;20207;-74
2021/01/31 10:56:18;;;;;;;21.53;12.47;;;2.30;99.90;;;;;;5085367;27;20204;-72
2021/01/31 10:58:45;;;;;;;23.75;12.57;;;2.40;99.90;;;;;;5086386;27;20238;-75
2021/01/31 11:01:11;;;;;;;22.52;12.45;;;2.40;99.90;;;;;;5036789;27;20208;-76
2021/01/31 11:03:37;;;;;;;22.60;11.77;;;2.50;99.90;;;;;;5082600;27;20204;-73
2021/01/31 11:06:04;;;;;;;21.65;12.13;;;2.50;99.90;;;;;;5097690;27;20203;-73
2021/01/31 11:08:31;;;;;;;20.60;11.45;;;2.50;99.90;;;;;;5096794;27;20203;-74
2021/01/31 11:10:58;;;;;;;20.42;11.48;;;2.60;99.90;;;;;;5041022;27;20217;-74
2021/01/31 11:13:25;;;;;;;23.90;12.07;;;2.60;99.90;;;;;;5074763;27;20632;-75
2021/01/31 11:15:52;;;;;;;22.20;12.10;;;2.60;99.90;;;;;;5106265;27;20680;-74
2021/01/31 11:18:19;;;;;;;22.67;11.55;;;2.70;99.90;;;;;;5070237;27;20215;-75
2021/01/31 11:20:48;;;;;;;23.75;13.10;;;2.70;99.90;;;;;;5095782;27;20216;-74
2021/01/31 11:23:14;;;;;;;22.20;12.43;;;2.80;99.90;;;;;;5082959;27;20269;-74
2021/01/31 11:25:40;;;;;;;20.95;11.88;;;2.80;99.90;;;;;;5089666;27;20193;-75
2021/01/31 11:28:07;;;;;;;19.98;11.50;;;2.90;99.90;;;;;;5070429;27;20232;-74
2021/01/31 11:30:34;;;;;;;22.05;11.88;;;2.90;99.90;;;;;;5066036;27;20273;-74
2021/01/31 11:33:02;;;;;;;20.55;11.13;;;2.90;99.90;;;;;;5051591;27;20207;-74
2021/01/31 11:35:29;;;;;;;20.75;11.27;;;2.90;99.90;;;;;;5068862;27;20665;-74
2021/01/31 11:37:56;;;;;;;24.48;12.13;;;3.00;99.90;;;;;;5075503;27;20208;-73
2021/01/31 11:40:23;;;;;;;20.95;11.00;;;3.00;99.90;;;;;;5085438;27;20196;-73
2021/01/31 11:42:50;;;;;;;20.88;11.80;;;3.00;99.90;;;;;;5076196;27;20213;-74
2021/01/31 11:45:17;;;;;;;20.38;11.45;;;3.00;99.90;;;;;;5083985;27;20239;-74
2021/01/31 11:47:45;;;;;;;22.58;12.13;;;3.00;99.90;;;;;;5059450;27;20204;-73
2021/01/31 11:50:13;;;;;;;24.58;13.45;;;3.10;99.90;;;;;;5051472;27;20198;-72
2021/01/31 11:52:40;;;;;;;23.80;11.93;;;3.10;99.90;;;;;;5040718;27;20208;-74
2021/01/31 11:55:08;;;;;;;22.88;12.63;;;3.10;99.80;;;;;;5020603;27;20690;-74
2021/01/31 11:57:35;;;;;;;22.67;12.00;;;3.10;99.70;;;;;;5078874;27;20558;-75
2021/01/31 12:00:02;;;;;;;22.65;11.43;;;3.10;99.60;;;;;;5067787;27;20699;-74
2021/01/31 12:02:38;;;;;;;19.42;10.68;;;3.20;99.50;;;;;;5070386;27;20211;-75
2021/01/31 12:05:09;;;;;;;20.02;10.60;;;3.20;99.30;;;;;;5023770;27;21003;-75
2021/01/31 12:07:36;;;;;;;18.65;10.40;;;3.30;99.20;;;;;;5074542;27;20213;-73
2021/01/31 12:10:03;;;;;;;17.55;10.23;;;3.30;99.00;;;;;;5039315;27;20648;-72
2021/01/31 12:12:30;;;;;;;19.00;10.32;;;3.40;98.90;;;;;;5088080;27;20212;-72
2021/01/31 12:14:56;;;;;;;18.75;10.43;;;3.40;98.80;;;;;;5071174;27;20204;-72
2021/01/31 12:17:22;;;;;;;19.13;10.70;;;3.50;98.60;;;;;;5074412;27;20211;-72
2021/01/31 12:19:49;;;;;;;18.27;10.25;;;3.50;98.40;;;;;;5031681;27;20238;-73
2021/01/31 12:22:16;;;;;;;18.30;9.90;;;3.60;98.20;;;;;;5033421;27;20220;-73
2021/01/31 12:24:45;;;;;;;16.73;9.18;;;3.70;98.00;;;;;;5047472;27;20555;-74
2021/01/31 12:27:12;;;;;;;20.70;9.23;;;3.70;97.80;;;;;;5082040;27;20224;-73
2021/01/31 12:29:38;;;;;;;16.63;8.82;;;3.80;97.70;;;;;;5068412;27;20200;-73
2021/01/31 12:32:05;;;;;;;16.33;9.05;;;3.80;97.40;;;;;;5093123;27;20216;-72
2021/01/31 12:34:31;;;;;;;18.85;9.35;;;3.90;97.30;;;;;;5097579;27;20656;-72
2021/01/31 12:36:58;;;;;;;17.60;9.95;;;4.00;97.20;;;;;;5066448;27;20203;-72
2021/01/31 12:39:25;;;;;;;16.88;9.88;;;4.10;97.00;;;;;;5031646;27;20785;-74
2021/01/31 12:41:52;;;;;;;21.30;10.27;;;4.30;96.90;;;;;;5044030;27;20212;-73
2021/01/31 12:44:18;;;;;;;15.10;8.98;;;4.40;96.60;;;;;;5078934;27;20204;-73
2021/01/31 12:46:44;;;;;;;16.88;8.48;;;4.50;96.40;;;;;;5102975;27;20203;-72
2021/01/31 12:49:11;;;;;;;17.83;9.05;;;4.70;96.10;;;;;;5088306;27;20553;-73
2021/01/31 12:51:38;;;;;;;16.65;8.70;;;4.80;95.80;;;;;;5134210;27;20208;-72
2021/01/31 12:54:04;;;;;;;15.90;7.75;;;5.00;95.50;;;;;;5068254;27;20203;-72
2021/01/31 12:56:31;;;;;;;14.85;8.35;;;5.20;95.10;;;;;;5044718;27;20574;-71
2021/01/31 12:58:58;;;;;;;15.20;8.85;;;5.30;94.70;;;;;;5094180;27;20308;-71
2021/01/31 13:01:24;;;;;;;14.65;8.57;;;5.50;94.30;;;;;;5059980;27;20735;-72